createdAt,value
2023-03-02T08:34:05.487Z,17.11
2023-03-02T08:34:16.812Z,17.13
2023-03-02T08:34:28.400Z,17.18
2023-03-02T08:34:39.734Z,17.20
2023-03-02T08:34:51.382Z,17.22
2023-03-02T08:35:02.727Z,17.23
2023-03-02T08:35:14.347Z,17.25
2023-03-02T08:35:25.788Z,17.26
2023-03-02T08:35:37.395Z,17.28
2023-03-02T08:35:48.881Z,17.30
2023-03-02T08:36:00.994Z,17.31
2023-03-02T08:36:12.373Z,17.32
2023-03-02T08:36:23.951Z,17.33
2023-03-02T08:36:35.462Z,17.34
2023-03-02T08:36:47.126Z,17.36
2023-03-02T08:36:58.454Z,17.37
2023-03-02T08:37:10.032Z,17.38
2023-03-02T08:37:21.346Z,17.39
2023-03-02T08:37:33.119Z,17.41
2023-03-02T08:37:44.459Z,17.41
2023-03-02T08:37:56.032Z,17.43
2023-03-02T08:38:07.364Z,17.44
2023-03-02T08:38:18.984Z,17.45
2023-03-02T08:38:30.313Z,17.46
2023-03-02T08:38:41.901Z,17.47
2023-03-02T08:38:53.248Z,17.48
2023-03-02T08:39:04.843Z,17.49
2023-03-02T08:39:16.220Z,17.50
2023-03-02T08:39:29.065Z,17.50
2023-03-02T08:39:38.291Z,17.52
2023-03-02T08:39:49.876Z,17.53
2023-03-02T08:40:01.227Z,17.53
2023-03-02T08:40:12.782Z,17.54
2023-03-02T08:40:24.102Z,17.55
2023-03-02T08:40:35.692Z,17.57
2023-03-02T08:40:47.038Z,17.57
2023-03-02T08:40:58.657Z,17.57
2023-03-02T08:41:09.998Z,17.59
2023-03-02T08:41:21.606Z,17.59
2023-03-02T08:41:33.393Z,17.60
2023-03-02T08:41:45.110Z,17.60
2023-03-02T08:41:56.446Z,17.61
2023-03-02T08:42:08.032Z,17.63
2023-03-02T08:42:19.343Z,17.62
2023-03-02T08:42:30.935Z,17.64
2023-03-02T08:42:42.302Z,17.65
2023-03-02T08:42:53.896Z,17.65
2023-03-02T08:43:07.721Z,17.66
2023-03-02T08:43:17.246Z,17.66
2023-03-02T08:43:28.841Z,17.67
2023-03-02T08:43:40.220Z,17.68
2023-03-02T08:43:51.829Z,17.69
2023-03-02T08:44:03.183Z,17.70
2023-03-02T08:44:14.772Z,17.70
2023-03-02T08:44:26.080Z,17.71
2023-03-02T08:44:37.651Z,17.72
2023-03-02T08:44:48.976Z,17.72
2023-03-02T08:45:00.573Z,17.73
2023-03-02T08:45:11.895Z,17.73
2023-03-02T08:45:23.603Z,17.74
2023-03-02T08:45:35.044Z,17.74
2023-03-02T08:45:46.610Z,17.75
2023-03-02T08:45:58.095Z,17.76
2023-03-02T08:46:09.859Z,17.76
2023-03-02T08:46:21.176Z,17.77
2023-03-02T08:46:32.763Z,17.78
2023-03-02T08:46:44.081Z,17.78
2023-03-02T08:46:55.685Z,17.80
2023-03-02T08:47:07.042Z,17.80
2023-03-02T08:47:18.631Z,17.81
2023-03-02T08:47:29.949Z,17.81
2023-03-02T08:47:41.537Z,17.82
2023-03-02T08:47:52.876Z,17.83
2023-03-02T08:48:04.460Z,17.83
2023-03-02T08:48:15.782Z,17.84
2023-03-02T08:48:27.357Z,17.84
2023-03-02T08:48:38.682Z,17.85
2023-03-02T08:48:50.307Z,17.87
2023-03-02T08:49:01.655Z,17.86
2023-03-02T08:49:13.265Z,17.88
2023-03-02T08:49:24.590Z,17.88
2023-03-02T08:49:36.170Z,17.89
2023-03-02T08:49:48.353Z,17.89
2023-03-02T08:49:57.674Z,17.89
2023-03-02T08:50:09.265Z,17.90
2023-03-02T08:50:20.575Z,17.91
2023-03-02T08:50:32.157Z,17.91
2023-03-02T08:50:43.534Z,17.92
2023-03-02T08:50:55.078Z,17.93
2023-03-02T08:51:06.406Z,17.94
2023-03-02T08:51:18.027Z,17.95
2023-03-02T08:51:29.318Z,17.95
2023-03-02T08:51:40.900Z,17.96
2023-03-02T08:51:52.227Z,17.97
2023-03-02T08:52:03.856Z,17.98
2023-03-02T08:52:15.304Z,17.98
2023-03-02T08:52:27.000Z,17.98
2023-03-02T08:52:38.352Z,17.99
2023-03-02T08:52:49.971Z,18.00
2023-03-02T08:53:01.309Z,17.99
2023-03-02T08:53:12.922Z,18.01
2023-03-02T08:53:24.259Z,18.01
2023-03-02T08:53:35.863Z,18.02
2023-03-02T08:53:47.200Z,18.02
2023-03-02T08:53:58.815Z,18.04
2023-03-02T08:54:10.142Z,18.05
2023-03-02T08:54:21.725Z,18.04
2023-03-02T08:54:33.045Z,18.05
2023-03-02T08:54:44.742Z,18.06
2023-03-02T08:54:56.106Z,18.06
2023-03-02T08:55:07.764Z,18.07
2023-03-02T08:55:19.185Z,18.08
2023-03-02T08:55:30.835Z,18.08
2023-03-02T08:55:42.132Z,18.09
2023-03-02T08:55:53.762Z,18.10
2023-03-02T08:56:05.126Z,18.10
2023-03-02T08:56:16.726Z,18.12
2023-03-02T08:56:28.069Z,18.12
2023-03-02T08:56:39.657Z,18.12
2023-03-02T08:56:51.000Z,18.13
2023-03-02T08:57:02.648Z,18.14
2023-03-02T08:57:14.000Z,18.14
2023-03-02T08:57:25.592Z,18.16
2023-03-02T08:57:36.949Z,18.15
2023-03-02T08:57:48.554Z,18.17
2023-03-02T08:57:59.883Z,18.17
2023-03-02T08:58:11.489Z,18.18
2023-03-02T08:58:22.844Z,18.19
2023-03-02T08:58:34.411Z,18.19
2023-03-02T08:58:45.752Z,18.19
2023-03-02T08:58:57.330Z,18.21
2023-03-02T08:59:08.709Z,18.21
2023-03-02T08:59:20.299Z,18.22
2023-03-02T08:59:31.653Z,18.23
2023-03-02T08:59:43.255Z,18.23
2023-03-02T08:59:54.598Z,18.23
2023-03-02T09:00:06.205Z,18.24
2023-03-02T09:00:17.525Z,18.25
2023-03-02T09:00:31.263Z,18.26
2023-03-02T09:00:40.836Z,18.26
2023-03-02T09:00:52.568Z,18.27
2023-03-02T09:01:03.940Z,18.27
2023-03-02T09:01:15.551Z,18.29
2023-03-02T09:01:27.000Z,18.28
2023-03-02T09:01:38.748Z,18.30
2023-03-02T09:01:50.177Z,18.30
2023-03-02T09:02:01.778Z,18.32
2023-03-02T09:02:13.105Z,18.31
2023-03-02T09:02:24.727Z,18.32
2023-03-02T09:02:36.077Z,18.33
2023-03-02T09:02:47.652Z,18.33
2023-03-02T09:02:58.979Z,18.33
2023-03-02T09:03:10.560Z,18.35
2023-03-02T09:03:21.880Z,18.35
2023-03-02T09:03:33.465Z,18.36
2023-03-02T09:03:44.953Z,18.37
2023-03-02T09:03:56.550Z,18.38
2023-03-02T09:04:08.103Z,18.38
2023-03-02T09:04:19.850Z,18.39
2023-03-02T09:04:31.255Z,18.39
2023-03-02T09:04:42.855Z,18.41
2023-03-02T09:04:54.277Z,18.41
2023-03-02T09:05:05.888Z,18.42
2023-03-02T09:05:17.227Z,18.42
2023-03-02T09:05:28.812Z,18.44
2023-03-02T09:05:40.145Z,18.44
2023-03-02T09:05:51.734Z,18.46
2023-03-02T09:06:03.164Z,18.45
2023-03-02T09:06:14.773Z,18.47
2023-03-02T09:06:26.078Z,18.47
2023-03-02T09:06:37.688Z,18.47
2023-03-02T09:06:49.066Z,18.48
2023-03-02T09:07:00.635Z,18.49
2023-03-02T09:07:11.976Z,18.50
2023-03-02T09:07:23.593Z,18.50
2023-03-02T09:07:34.942Z,18.51
2023-03-02T09:07:46.557Z,18.52
2023-03-02T09:07:57.864Z,18.52
2023-03-02T09:08:09.476Z,18.53
2023-03-02T09:08:20.806Z,18.53
2023-03-02T09:08:32.412Z,18.55
2023-03-02T09:08:43.775Z,18.56
2023-03-02T09:08:55.370Z,18.56
2023-03-02T09:09:06.732Z,18.56
2023-03-02T09:09:18.314Z,18.58
2023-03-02T09:09:29.621Z,18.59
2023-03-02T09:09:41.214Z,18.60
2023-03-02T09:09:52.541Z,18.60
2023-03-02T09:10:04.158Z,18.61
2023-03-02T09:10:15.489Z,18.62
2023-03-02T09:10:27.117Z,18.62
2023-03-02T09:10:38.418Z,18.64
2023-03-02T09:10:50.033Z,18.64
2023-03-02T09:11:01.376Z,18.64
2023-03-02T09:11:12.975Z,18.65
2023-03-02T09:11:24.302Z,18.66
2023-03-02T09:11:36.104Z,18.67
2023-03-02T09:11:47.545Z,18.67
2023-03-02T09:11:59.133Z,18.67
2023-03-02T09:12:10.470Z,18.68
2023-03-02T09:12:22.050Z,18.69
2023-03-02T09:12:33.511Z,18.70
2023-03-02T09:12:45.096Z,18.71
2023-03-02T09:12:56.423Z,18.71
2023-03-02T09:13:08.625Z,18.72
2023-03-02T09:13:20.342Z,18.73
2023-03-02T09:13:31.691Z,18.73
2023-03-02T09:13:43.275Z,18.74
2023-03-02T09:13:54.652Z,18.75
2023-03-02T09:14:06.253Z,18.75
2023-03-02T09:14:17.588Z,18.76
2023-03-02T09:14:29.180Z,18.77
2023-03-02T09:14:40.518Z,18.77
2023-03-02T09:14:52.113Z,18.78
2023-03-02T09:15:03.452Z,18.79
2023-03-02T09:15:15.048Z,18.79
2023-03-02T09:15:26.412Z,18.80
2023-03-02T09:15:37.976Z,18.80
2023-03-02T09:15:49.319Z,18.81
2023-03-02T09:16:00.898Z,18.82
2023-03-02T09:16:12.349Z,18.83
2023-03-02T09:16:23.994Z,18.83
2023-03-02T09:16:35.376Z,18.84
2023-03-02T09:16:47.099Z,18.85
2023-03-02T09:16:58.567Z,18.85
2023-03-02T09:17:10.171Z,18.86
2023-03-02T09:17:21.512Z,18.85
2023-03-02T09:17:33.126Z,18.88
2023-03-02T09:17:44.483Z,18.88
2023-03-02T09:17:56.073Z,18.89
2023-03-02T09:18:07.400Z,18.89
2023-03-02T09:18:19.109Z,18.90
2023-03-02T09:18:30.475Z,18.91
2023-03-02T09:18:42.061Z,18.92
2023-03-02T09:18:53.421Z,18.92
2023-03-02T09:19:05.019Z,18.93
2023-03-02T09:19:16.341Z,18.93
2023-03-02T09:19:27.954Z,18.93
2023-03-02T09:19:39.287Z,18.94
2023-03-02T09:19:50.906Z,18.96
2023-03-02T09:20:02.258Z,18.95
2023-03-02T09:20:13.847Z,18.97
2023-03-02T09:20:25.174Z,18.97
2023-03-02T09:20:36.776Z,18.98
2023-03-02T09:20:48.145Z,18.98
2023-03-02T09:20:59.723Z,18.99
2023-03-02T09:21:11.048Z,18.99
2023-03-02T09:21:22.652Z,19.00
2023-03-02T09:21:34.331Z,19.00
2023-03-02T09:21:46.206Z,19.01
2023-03-02T09:21:57.548Z,19.02
2023-03-02T09:22:09.143Z,19.02
2023-03-02T09:22:20.480Z,19.03
2023-03-02T09:22:32.073Z,19.04
2023-03-02T09:22:43.410Z,19.04
2023-03-02T09:22:55.018Z,19.04
2023-03-02T09:23:06.356Z,19.05
2023-03-02T09:23:17.957Z,19.06
2023-03-02T09:23:29.287Z,19.07
2023-03-02T09:23:40.896Z,19.07
2023-03-02T09:23:52.199Z,19.08
2023-03-02T09:24:03.799Z,19.09
2023-03-02T09:24:15.125Z,19.09
2023-03-02T09:24:26.777Z,19.09
2023-03-02T09:24:38.084Z,19.10
2023-03-02T09:24:49.671Z,19.11
2023-03-02T09:25:01.071Z,19.11
2023-03-02T09:25:12.634Z,19.12
2023-03-02T09:25:23.958Z,19.12
2023-03-02T09:25:35.554Z,19.13
2023-03-02T09:25:46.892Z,19.14
2023-03-02T09:25:58.475Z,19.14
2023-03-02T09:26:09.793Z,19.14
2023-03-02T09:26:21.407Z,19.15
2023-03-02T09:26:32.745Z,19.15
2023-03-02T09:26:44.335Z,19.16
2023-03-02T09:26:55.658Z,19.16
2023-03-02T09:27:07.239Z,19.17
2023-03-02T09:27:18.639Z,19.17
2023-03-02T09:27:30.239Z,19.18
2023-03-02T09:27:41.531Z,19.18
2023-03-02T09:27:53.150Z,19.19
2023-03-02T09:28:04.468Z,19.20
2023-03-02T09:28:16.044Z,19.21
2023-03-02T09:28:27.382Z,19.21
2023-03-02T09:28:38.986Z,19.21
2023-03-02T09:28:50.320Z,19.22
2023-03-02T09:29:01.904Z,19.22
2023-03-02T09:29:13.276Z,19.23
2023-03-02T09:29:24.863Z,19.24
2023-03-02T09:29:36.197Z,19.24
2023-03-02T09:29:47.789Z,19.24
2023-03-02T09:29:59.113Z,19.24
2023-03-02T09:30:10.702Z,19.25
2023-03-02T09:30:22.029Z,19.25
2023-03-02T09:30:33.622Z,19.26
2023-03-02T09:30:45.011Z,19.26
2023-03-02T09:30:56.591Z,19.27
2023-03-02T09:31:07.917Z,19.27
2023-03-02T09:31:19.500Z,19.28
2023-03-02T09:31:31.128Z,19.28
2023-03-02T09:31:42.825Z,19.29
2023-03-02T09:31:54.266Z,19.29
2023-03-02T09:32:06.052Z,19.30
2023-03-02T09:32:17.449Z,19.30
2023-03-02T09:32:29.176Z,19.30
2023-03-02T09:32:40.724Z,19.31
2023-03-02T09:32:52.606Z,19.32
2023-03-02T09:33:04.067Z,19.32
2023-03-02T09:33:15.704Z,19.32
2023-03-02T09:33:27.067Z,19.32
2023-03-02T09:33:38.650Z,19.34
2023-03-02T09:33:49.978Z,19.34
2023-03-02T09:34:01.604Z,19.34
2023-03-02T09:34:12.949Z,19.34
2023-03-02T09:34:24.733Z,19.35
2023-03-02T09:34:36.121Z,19.36
2023-03-02T09:34:47.682Z,19.37
2023-03-02T09:34:58.988Z,19.36
2023-03-02T09:35:10.600Z,19.37
2023-03-02T09:35:21.926Z,19.37
2023-03-02T09:35:33.511Z,19.38
2023-03-02T09:35:44.850Z,19.38
2023-03-02T09:35:56.437Z,19.39
2023-03-02T09:36:07.770Z,19.40
2023-03-02T09:36:19.378Z,19.40
2023-03-02T09:36:30.779Z,19.40
2023-03-02T09:36:42.384Z,19.41
2023-03-02T09:36:53.712Z,19.41
2023-03-02T09:37:05.334Z,19.42
2023-03-02T09:37:16.684Z,19.42
2023-03-02T09:37:28.419Z,19.43
2023-03-02T09:37:39.899Z,19.42
2023-03-02T09:37:51.547Z,19.43
2023-03-02T09:38:02.889Z,19.43
2023-03-02T09:38:14.472Z,19.44
2023-03-02T09:38:25.785Z,19.44
2023-03-02T09:38:37.400Z,19.45
2023-03-02T09:38:48.755Z,19.45
2023-03-02T09:39:00.366Z,19.45
2023-03-02T09:39:11.714Z,19.46
2023-03-02T09:39:23.314Z,19.46
2023-03-02T09:39:34.683Z,19.47
2023-03-02T09:39:46.381Z,19.47
